Gentryville, Missouri
Current Conditions -  °F | °C
As of 6:53 PM on Sunday 23 Nov 2014 (Local Time) from KLWD Reporting Station
Overcast Overcast  
Wind Chill: 34°   Ceiling: 1300
Heat Index: 43°   Visibility: 10mi
Dew Point: 40°   Wind: 21mph
Humidity: 89%   Direction: 340°NNW
Pressure: 29.37"   Gusts: 35mph
Location:  40.2703°N, 94.321°W
Report Text: KLWD 240053Z AUTO 34018G30KT 10SM OVC013 06/04 A2937 RMK AO2 PK WND 35030/0022 SLP948 T00610044
Loading
Personal Weather Stations






























Interactive Weather Map New forecast layout! Learn more

10-Day Weather Forecast

Advertisements
Track Severe Weather on mobile